Etusivu
METAR-TAF:

METAR-TAF

Lentoasemat :

Pago Pago, Yhdysvaltain pienet erillissaaret

Leveyspiiri: 14-20S, Pituuspiiri: 170-43W, korkeus merenpinnasta: 3 m

Tämänhetkinen sää

Tämä raportti tehtiin 50 minuuttia sitten, kello 21.50 UTC
Tuuli 6 kn eri suunnista
Lämpötila 31°C
Kosteus 71%
Ilmanpaine 1013 hPa
Näkyvyys: 19.3 km
Muutamia pilviä 2100 ft:n korkeudessa
Muutamia pilviä 10000 ft:n korkeudessa
Hajanaisia pilviä 22000 ft:n korkeudessa

METAR: NSTU 252150Z VRB06KT 12SM FEW021 FEW100 SCT220 31/25 A2992 RMK SLP132 T03060254

Aika: 11:40 (22:40 UTC)

Sääennuste

Tämä raportti tehtiin 5 tuntia ja 9 minuuttia sitten, kello 17.31 UTC
Ennuste voimassa 25. päivästä klo 18 UTC - 26. päivään klo 18 UTC
Tuuli 5 kn eri suunnista
Näkyvyys: 10 km
Muutamia pilviä 2000 ft:n korkeudessa
Hajanaisia pilviä 4000 ft:n korkeudessa
Hajonneita pilviä 10000 ft:n korkeudessa
sadekuuroja näköpiirissä,

TAF: NSTU 251731Z 2518/2618 VRB05KT P6SM VCSH FEW020 SCT040 BKN100

Säähavainnot ja -ennusteet yli 4000 lentoasemalta (METAR- ja TAF-raportit).

Käytössä olevat sääasemat on merkitty karttaan keltaisilla ja punaisilla pisteillä.

Aseta hiiri pisteen päälle nähdäksesi sääaseman nimen.

Klikkaa sitten nähdäksesi säähavainnot ja -ennusteet.

Kartan vaihtaminen: klikkaa mustalla rastilla varustettuja vihreitä pisteitä, niin voit zoomata sisään; viivalla varustettua vihreää pistettä, niin voit zoomata ulos tai vihreitä nuolia, niin pääset viereisille kartoille.


METAR-TAF: